Time;durP1;ratioP1;P1;durP2;ratioP2;P2;SDS_P1;SDS_P2;PMS_P1;PMS_P2;Temp;Humidity;BMP_temperature;BMP_pressure;BME280_temperature;BME280_humidity;BME280_pressure;Samples;Min_cycle;Max_cycle;Signal;HPM_P1;HPM_P2
2022/03/07 00:00:55;;;;;;;11.45;6.80;;;;;;;;;;5092361;28;20047;-71
2022/03/07 00:03:21;;;;;;;10.93;7.10;;;;;;;;;;5091610;28;20645;-71
2022/03/07 00:05:46;;;;;;;10.05;6.30;;;;;;;;;;5092170;28;20107;-71
2022/03/07 00:08:14;;;;;;;10.20;6.65;;;;;;;;;;5092512;28;20127;-71
2022/03/07 00:10:40;;;;;;;11.13;6.80;;;;;;;;;;5091051;28;20044;-69
2022/03/07 00:13:06;;;;;;;14.10;7.75;;;;;;;;;;5093560;28;20051;-69
2022/03/07 00:15:32;;;;;;;10.40;7.13;;;;;;;;;;5092010;28;20479;-69
2022/03/07 00:17:58;;;;;;;11.30;7.10;;;;;;;;;;5092994;28;20493;-69
2022/03/07 00:20:24;;;;;;;9.40;7.13;;;;;;;;;;5092202;28;20036;-70
2022/03/07 00:22:50;;;;;;;8.38;6.43;;;;;;;;;;5092122;28;20044;-70
2022/03/07 00:25:17;;;;;;;11.10;6.72;;;;;;;;;;5091467;28;20044;-70
2022/03/07 00:27:43;;;;;;;9.68;6.35;;;;;;;;;;5092055;28;20497;-70
2022/03/07 00:30:09;;;;;;;10.85;6.53;;;;;;;;;;5091588;28;20044;-70
2022/03/07 00:32:35;;;;;;;12.70;7.32;;;;;;;;;;5091509;28;20051;-70
2022/03/07 00:35:01;;;;;;;11.50;7.35;;;;;;;;;;5091672;28;20429;-70
2022/03/07 00:37:27;;;;;;;8.93;6.60;;;;;;;;;;5092069;28;20502;-70
2022/03/07 00:39:54;;;;;;;11.65;6.68;;;;;;;;;;5090981;28;20119;-70
2022/03/07 00:42:20;;;;;;;12.55;7.13;;;;;;;;;;5093358;28;20035;-70
2022/03/07 00:44:45;;;;;;;10.65;6.97;;;;;;;;;;5091588;28;20097;-70
2022/03/07 00:47:11;;;;;;;11.23;6.65;;;;;;;;;;5090664;28;20517;-70
2022/03/07 00:49:37;;;;;;;11.95;6.72;;;;;;;;;;5091345;28;20122;-70
2022/03/07 00:52:04;;;;;;;10.65;7.40;;;;;;;;;;5091579;28;20036;-70
2022/03/07 00:54:30;;;;;;;12.23;7.35;;;;;;;;;;5090683;28;20093;-70
2022/03/07 00:56:56;;;;;;;12.90;7.95;;;;;;;;;;5091195;28;20483;-70
2022/03/07 00:59:22;;;;;;;11.32;7.32;;;;;;;;;;5090770;28;20062;-70
2022/03/07 01:01:48;;;;;;;11.40;7.07;;;;;;;;;;5090553;28;20043;-70
2022/03/07 01:04:14;;;;;;;10.90;6.90;;;;;;;;;;5091181;28;20516;-70
2022/03/07 01:06:40;;;;;;;10.35;7.70;;;;;;;;;;5092427;28;20395;-70
2022/03/07 01:09:06;;;;;;;13.90;7.25;;;;;;;;;;5090535;28;20040;-70
2022/03/07 01:11:32;;;;;;;11.45;6.68;;;;;;;;;;5091994;28;20058;-70
2022/03/07 01:13:58;;;;;;;13.95;7.55;;;;;;;;;;5091412;28;20504;-70
2022/03/07 01:16:24;;;;;;;12.50;7.47;;;;;;;;;;5090256;28;20085;-70
2022/03/07 01:18:50;;;;;;;14.05;6.53;;;;;;;;;;5090709;28;20410;-70
2022/03/07 01:21:16;;;;;;;11.68;7.53;;;;;;;;;;5092442;28;20089;-70
2022/03/07 01:23:42;;;;;;;8.25;6.40;;;;;;;;;;5091442;28;20351;-70
2022/03/07 01:26:08;;;;;;;10.82;7.43;;;;;;;;;;5090630;28;20498;-70
2022/03/07 01:28:34;;;;;;;11.63;6.53;;;;;;;;;;5090658;28;20089;-70
2022/03/07 01:31:00;;;;;;;15.75;7.88;;;;;;;;;;5089804;28;20458;-70
2022/03/07 01:33:26;;;;;;;15.40;7.75;;;;;;;;;;5090778;28;20048;-70
2022/03/07 01:35:52;;;;;;;13.20;6.97;;;;;;;;;;5090439;28;20525;-70
2022/03/07 01:38:18;;;;;;;16.45;8.32;;;;;;;;;;5091008;28;20048;-70
2022/03/07 01:40:45;;;;;;;15.30;8.00;;;;;;;;;;5090779;28;20036;-70
2022/03/07 01:43:11;;;;;;;12.38;7.25;;;;;;;;;;5091596;28;20058;-70
2022/03/07 01:45:40;;;;;;;13.07;8.13;;;;;;;;;;5089952;28;20043;-70
2022/03/07 01:48:06;;;;;;;12.70;7.55;;;;;;;;;;5090046;28;20042;-70
2022/03/07 01:50:32;;;;;;;14.13;7.13;;;;;;;;;;5089637;28;20127;-70
2022/03/07 01:52:58;;;;;;;9.30;7.43;;;;;;;;;;5091372;28;20044;-70
2022/03/07 01:55:24;;;;;;;15.25;7.10;;;;;;;;;;5090079;28;20079;-70
2022/03/07 01:57:50;;;;;;;13.60;7.32;;;;;;;;;;5073082;28;20115;-70
2022/03/07 02:00:18;;;;;;;13.13;7.70;;;;;;;;;;5089538;28;20040;-70
2022/03/07 02:02:44;;;;;;;14.88;8.05;;;;;;;;;;5090016;28;20044;-70
2022/03/07 02:05:10;;;;;;;14.43;8.60;;;;;;;;;;5090247;28;20138;-70
2022/03/07 02:07:37;;;;;;;12.00;7.82;;;;;;;;;;5089114;28;20040;-70
2022/03/07 02:10:04;;;;;;;13.18;8.40;;;;;;;;;;5088722;28;20036;-70
2022/03/07 02:12:30;;;;;;;13.75;8.43;;;;;;;;;;5090024;28;20047;-70
2022/03/07 02:14:56;;;;;;;13.60;7.88;;;;;;;;;;5089352;28;20502;-70
2022/03/07 02:17:22;;;;;;;12.88;8.05;;;;;;;;;;5089591;28;20169;-70
2022/03/07 02:19:48;;;;;;;12.32;8.25;;;;;;;;;;5072638;28;20123;-70
2022/03/07 02:22:17;;;;;;;15.98;9.43;;;;;;;;;;5089904;28;20858;-70
2022/03/07 02:24:44;;;;;;;14.48;8.60;;;;;;;;;;5089226;28;20051;-70
2022/03/07 02:27:10;;;;;;;16.80;8.85;;;;;;;;;;5089828;28;20048;-70
2022/03/07 02:29:37;;;;;;;11.40;7.93;;;;;;;;;;5089413;28;20127;-70
2022/03/07 02:32:04;;;;;;;14.20;8.02;;;;;;;;;;5088855;28;20036;-70
2022/03/07 02:34:30;;;;;;;14.32;8.40;;;;;;;;;;5091099;28;20093;-70
2022/03/07 02:36:56;;;;;;;13.68;8.27;;;;;;;;;;5091070;28;20036;-70
2022/03/07 02:39:22;;;;;;;11.85;7.45;;;;;;;;;;5089122;28;20399;-70
2022/03/07 02:41:48;;;;;;;14.77;8.20;;;;;;;;;;5091065;28;20406;-70
2022/03/07 02:44:14;;;;;;;15.20;7.90;;;;;;;;;;5089261;28;20502;-70
2022/03/07 02:46:40;;;;;;;11.80;7.25;;;;;;;;;;5088472;28;20036;-70
2022/03/07 02:49:06;;;;;;;12.43;8.00;;;;;;;;;;5090548;28;20040;-70
2022/03/07 02:51:33;;;;;;;14.45;8.20;;;;;;;;;;5089030;28;20039;-70
2022/03/07 02:53:59;;;;;;;16.60;8.25;;;;;;;;;;5071940;28;20050;-70
2022/03/07 02:56:25;;;;;;;15.05;8.10;;;;;;;;;;5071956;28;20131;-70
2022/03/07 02:58:51;;;;;;;10.30;7.35;;;;;;;;;;5090565;28;20379;-70
2022/03/07 03:01:17;;;;;;;12.20;8.07;;;;;;;;;;5088934;28;20440;-70
2022/03/07 03:03:43;;;;;;;10.73;7.68;;;;;;;;;;5089170;28;20046;-70
2022/03/07 03:06:09;;;;;;;13.23;7.47;;;;;;;;;;5088770;28;20123;-70
2022/03/07 03:08:35;;;;;;;12.80;7.85;;;;;;;;;;5088647;28;20482;-70
2022/03/07 03:11:02;;;;;;;10.98;8.00;;;;;;;;;;5088570;28;20040;-70
2022/03/07 03:13:28;;;;;;;12.80;7.78;;;;;;;;;;5089396;28;20074;-70
2022/03/07 03:15:55;;;;;;;10.63;7.40;;;;;;;;;;5088339;28;20051;-70
2022/03/07 03:18:21;;;;;;;11.10;8.10;;;;;;;;;;5088931;28;20047;-70
2022/03/07 03:20:48;;;;;;;12.95;7.97;;;;;;;;;;5088712;28;20116;-70
2022/03/07 03:23:15;;;;;;;15.88;8.15;;;;;;;;;;5088085;28;20039;-70
2022/03/07 03:25:41;;;;;;;14.07;8.30;;;;;;;;;;5088997;28;20032;-70
2022/03/07 03:28:07;;;;;;;10.52;7.78;;;;;;;;;;5088811;28;20051;-70
2022/03/07 03:30:33;;;;;;;15.73;8.02;;;;;;;;;;5089025;28;20055;-70
2022/03/07 03:32:59;;;;;;;13.10;8.50;;;;;;;;;;5088921;28;20058;-70
2022/03/07 03:35:25;;;;;;;15.10;8.48;;;;;;;;;;5088840;28;20111;-70
2022/03/07 03:37:51;;;;;;;12.85;8.80;;;;;;;;;;5088157;28;20127;-70
2022/03/07 03:40:17;;;;;;;13.30;8.57;;;;;;;;;;5088677;28;20069;-70
2022/03/07 03:42:44;;;;;;;15.57;8.70;;;;;;;;;;5088664;28;20044;-70
2022/03/07 03:45:10;;;;;;;14.93;8.30;;;;;;;;;;5088064;28;20068;-70
2022/03/07 03:47:37;;;;;;;17.67;8.38;;;;;;;;;;5088368;28;20398;-70
2022/03/07 03:50:04;;;;;;;13.93;8.20;;;;;;;;;;5088696;28;20255;-70
2022/03/07 03:52:31;;;;;;;13.27;8.60;;;;;;;;;;5087633;28;20414;-70
2022/03/07 03:54:57;;;;;;;14.13;8.45;;;;;;;;;;5088513;28;20040;-70
2022/03/07 03:57:23;;;;;;;13.70;8.40;;;;;;;;;;5088336;28;20044;-70
2022/03/07 03:59:49;;;;;;;17.85;8.60;;;;;;;;;;5087748;28;20082;-70
2022/03/07 04:02:15;;;;;;;13.98;8.05;;;;;;;;;;5088687;28;20040;-70
2022/03/07 04:04:41;;;;;;;15.27;8.90;;;;;;;;;;5088578;28;20044;-70
2022/03/07 04:07:07;;;;;;;15.95;9.32;;;;;;;;;;5087750;28;20044;-70
2022/03/07 04:09:34;;;;;;;13.90;8.63;;;;;;;;;;5088193;28;20119;-70
2022/03/07 04:12:00;;;;;;;15.57;7.95;;;;;;;;;;5087923;28;20071;-70
2022/03/07 04:14:26;;;;;;;15.23;9.23;;;;;;;;;;5089165;28;20044;-70
2022/03/07 04:16:52;;;;;;;12.88;8.50;;;;;;;;;;5088791;28;20255;-70
2022/03/07 04:19:18;;;;;;;12.88;7.55;;;;;;;;;;5088121;28;20100;-70
2022/03/07 04:21:45;;;;;;;13.40;7.65;;;;;;;;;;5087438;28;20130;-70
2022/03/07 04:24:12;;;;;;;13.63;7.70;;;;;;;;;;5087968;28;20494;-70
2022/03/07 04:26:38;;;;;;;14.25;7.90;;;;;;;;;;5087910;28;20365;-70
2022/03/07 04:29:07;;;;;;;14.80;8.65;;;;;;;;;;5087480;28;20048;-70
2022/03/07 04:31:35;;;;;;;13.40;8.10;;;;;;;;;;5088086;28;20044;-69
2022/03/07 04:34:01;;;;;;;10.63;7.53;;;;;;;;;;5091001;28;20048;-69
2022/03/07 04:36:27;;;;;;;12.90;8.13;;;;;;;;;;5091015;28;20193;-69
2022/03/07 04:38:53;;;;;;;14.88;8.52;;;;;;;;;;5091798;28;20131;-69
2022/03/07 04:41:19;;;;;;;13.82;8.30;;;;;;;;;;5091863;28;20406;-69
2022/03/07 04:43:45;;;;;;;16.50;8.10;;;;;;;;;;5090889;28;20047;-69
2022/03/07 04:46:11;;;;;;;14.00;8.30;;;;;;;;;;5091511;28;20039;-69
2022/03/07 04:48:37;;;;;;;14.07;8.05;;;;;;;;;;5091421;28;20180;-70
2022/03/07 04:51:03;;;;;;;13.57;8.48;;;;;;;;;;5090337;28;20403;-70
2022/03/07 04:53:30;;;;;;;15.30;8.60;;;;;;;;;;5091722;28;20035;-70
2022/03/07 04:55:56;;;;;;;13.55;8.48;;;;;;;;;;5091436;28;20051;-70
2022/03/07 04:58:22;;;;;;;14.70;8.38;;;;;;;;;;5091031;28;20541;-70
2022/03/07 05:00:48;;;;;;;17.20;8.48;;;;;;;;;;5092489;28;20119;-70
2022/03/07 05:03:14;;;;;;;15.30;8.70;;;;;;;;;;5091011;28;20131;-70
2022/03/07 05:05:40;;;;;;;12.93;7.78;;;;;;;;;;5090685;28;20542;-70
2022/03/07 05:08:06;;;;;;;16.85;8.68;;;;;;;;;;5091041;28;20083;-70
2022/03/07 05:10:32;;;;;;;15.52;8.98;;;;;;;;;;5090792;28;20078;-71
2022/03/07 05:12:58;;;;;;;18.08;8.40;;;;;;;;;;5090275;28;20071;-70
2022/03/07 05:15:24;;;;;;;16.88;8.40;;;;;;;;;;5091079;28;20082;-70
2022/03/07 05:17:53;;;;;;;15.23;8.25;;;;;;;;;;5091061;28;20387;-70
2022/03/07 05:20:20;;;;;;;17.60;9.18;;;;;;;;;;5089969;28;20766;-70
2022/03/07 05:22:46;;;;;;;16.50;8.30;;;;;;;;;;5091171;28;20490;-70
2022/03/07 05:25:13;;;;;;;18.67;8.63;;;;;;;;;;5092122;28;20040;-70
2022/03/07 05:27:39;;;;;;;14.18;8.45;;;;;;;;;;5090000;28;20047;-70
2022/03/07 05:30:06;;;;;;;16.77;9.15;;;;;;;;;;5090246;28;20143;-70
2022/03/07 05:32:32;;;;;;;20.50;9.48;;;;;;;;;;5090065;28;20051;-70
2022/03/07 05:34:58;;;;;;;19.83;9.82;;;;;;;;;;5089525;28;20541;-70
2022/03/07 05:37:24;;;;;;;16.27;8.90;;;;;;;;;;5090574;28;20411;-70
2022/03/07 05:39:50;;;;;;;19.63;9.27;;;;;;;;;;5090430;28;20565;-70
2022/03/07 05:42:16;;;;;;;22.17;10.82;;;;;;;;;;5091513;28;20162;-70
2022/03/07 05:44:42;;;;;;;41.45;11.20;;;;;;;;;;5088901;28;20131;-69
2022/03/07 05:47:08;;;;;;;29.02;11.18;;;;;;;;;;5090064;28;20449;-69
2022/03/07 05:49:34;;;;;;;24.05;10.60;;;;;;;;;;5091208;28;20040;-69
2022/03/07 05:52:00;;;;;;;28.85;11.07;;;;;;;;;;5072827;28;20386;-69
2022/03/07 05:54:26;;;;;;;19.73;9.98;;;;;;;;;;5090602;28;20134;-69
2022/03/07 05:56:52;;;;;;;20.75;10.18;;;;;;;;;;5090227;28;20055;-69
2022/03/07 05:59:18;;;;;;;23.60;11.98;;;;;;;;;;5089410;28;20044;-69
2022/03/07 06:01:44;;;;;;;20.67;10.73;;;;;;;;;;5089866;28;20194;-70
2022/03/07 06:04:10;;;;;;;18.13;10.90;;;;;;;;;;5089733;28;20048;-70
2022/03/07 06:06:36;;;;;;;16.15;9.82;;;;;;;;;;5089448;28;20111;-70
2022/03/07 06:09:02;;;;;;;20.65;9.90;;;;;;;;;;5091167;28;20043;-70
2022/03/07 06:11:28;;;;;;;21.83;11.52;;;;;;;;;;5089518;28;20456;-70
2022/03/07 06:13:54;;;;;;;18.48;11.38;;;;;;;;;;5089264;28;20490;-70
2022/03/07 06:16:20;;;;;;;20.70;11.13;;;;;;;;;;5089661;28;20070;-70
2022/03/07 06:18:46;;;;;;;18.83;10.40;;;;;;;;;;5089614;28;20127;-70
2022/03/07 06:21:12;;;;;;;17.83;10.70;;;;;;;;;;5089125;28;20494;-70
2022/03/07 06:23:38;;;;;;;23.20;11.88;;;;;;;;;;5089580;28;20407;-70
2022/03/07 06:26:05;;;;;;;22.65;11.60;;;;;;;;;;5089254;28;20398;-70
2022/03/07 06:28:31;;;;;;;20.00;11.00;;;;;;;;;;5088434;28;20123;-70
2022/03/07 06:30:57;;;;;;;25.58;12.23;;;;;;;;;;5089258;28;20439;-70
2022/03/07 06:33:23;;;;;;;20.83;11.50;;;;;;;;;;5089124;28;20048;-70
2022/03/07 06:35:49;;;;;;;24.98;11.73;;;;;;;;;;5088617;28;20048;-70
2022/03/07 06:38:15;;;;;;;21.52;11.57;;;;;;;;;;5089797;28;20055;-69
2022/03/07 06:40:42;;;;;;;26.08;11.80;;;;;;;;;;5089431;28;20403;-69
2022/03/07 06:43:08;;;;;;;23.77;11.43;;;;;;;;;;5088272;28;20048;-70
2022/03/07 06:45:34;;;;;;;22.75;11.40;;;;;;;;;;5087870;28;20047;-69
2022/03/07 06:48:00;;;;;;;19.05;12.00;;;;;;;;;;5085498;28;20048;-71
2022/03/07 06:50:26;;;;;;;21.20;11.82;;;;;;;;;;5084180;28;20044;-69
2022/03/07 06:52:52;;;;;;;20.25;11.75;;;;;;;;;;5089217;28;20119;-68
2022/03/07 06:55:18;;;;;;;22.45;11.63;;;;;;;;;;5089815;28;20036;-68
2022/03/07 06:57:45;;;;;;;19.75;11.93;;;;;;;;;;5089211;28;20491;-68
2022/03/07 07:00:13;;;;;;;22.88;12.35;;;;;;;;;;5089762;28;20036;-68
2022/03/07 07:02:39;;;;;;;25.42;11.93;;;;;;;;;;5089870;28;20055;-68
2022/03/07 07:05:07;;;;;;;20.48;11.95;;;;;;;;;;5089276;28;20046;-70
2022/03/07 07:07:33;;;;;;;19.80;13.50;;;;;;;;;;5088302;28;20040;-68
2022/03/07 07:09:59;;;;;;;20.13;11.73;;;;;;;;;;5089530;28;20136;-68
2022/03/07 07:12:25;;;;;;;21.13;12.00;;;;;;;;;;5079731;28;20093;-69
2022/03/07 07:14:51;;;;;;;25.73;12.48;;;;;;;;;;5083984;28;20040;-68
2022/03/07 07:17:17;;;;;;;18.73;12.05;;;;;;;;;;5090211;28;20513;-69
2022/03/07 07:19:43;;;;;;;18.33;11.68;;;;;;;;;;5088846;28;20043;-69
2022/03/07 07:22:09;;;;;;;22.33;11.75;;;;;;;;;;5077299;28;20386;-71
2022/03/07 07:24:35;;;;;;;20.63;12.00;;;;;;;;;;5088119;28;20132;-71
2022/03/07 07:27:01;;;;;;;21.38;12.02;;;;;;;;;;5087017;28;20118;-71
2022/03/07 07:29:27;;;;;;;23.00;11.90;;;;;;;;;;5088454;28;20159;-71
2022/03/07 07:31:55;;;;;;;20.60;11.05;;;;;;;;;;5089476;28;20124;-70
2022/03/07 07:34:22;;;;;;;23.08;12.40;;;;;;;;;;5082863;28;20064;-70
2022/03/07 07:36:49;;;;;;;22.25;12.50;;;;;;;;;;5090817;28;20062;-70
2022/03/07 07:39:28;;;;;;;19.73;11.52;;;;;;;;;;5091262;28;20044;-70
2022/03/07 07:41:56;;;;;;;23.92;12.85;;;;;;;;;;5089558;28;20036;-72
2022/03/07 07:44:26;;;;;;;22.25;12.32;;;;;;;;;;5088533;28;20054;-70
2022/03/07 07:47:04;;;;;;;18.15;11.23;;;;;;;;;;5089611;28;20048;-71
2022/03/07 07:49:31;;;;;;;23.80;12.27;;;;;;;;;;5088557;28;20079;-70
2022/03/07 07:51:57;;;;;;;16.52;10.88;;;;;;;;;;5088272;28;20047;-70
2022/03/07 07:54:23;;;;;;;21.48;11.05;;;;;;;;;;5089364;28;20046;-71
2022/03/07 07:56:50;;;;;;;18.70;11.32;;;;;;;;;;5085768;28;20119;-71
2022/03/07 07:59:18;;;;;;;21.10;12.00;;;;;;;;;;5087331;28;20490;-70
2022/03/07 08:01:44;;;;;;;16.45;10.40;;;;;;;;;;5087545;28;20354;-69
2022/03/07 08:04:12;;;;;;;15.15;10.93;;;;;;;;;;5089148;28;20036;-69
2022/03/07 08:06:38;;;;;;;16.95;10.93;;;;;;;;;;5079462;28;20045;-67
2022/03/07 08:09:04;;;;;;;17.13;10.38;;;;;;;;;;5085904;28;20040;-68
2022/03/07 08:11:30;;;;;;;17.88;9.88;;;;;;;;;;5092523;28;20051;-66
2022/03/07 08:13:56;;;;;;;17.73;10.65;;;;;;;;;;5093676;28;20055;-65
2022/03/07 08:16:22;;;;;;;18.17;10.18;;;;;;;;;;5093690;28;20046;-65
2022/03/07 08:18:48;;;;;;;17.90;10.32;;;;;;;;;;5093246;28;20051;-66
2022/03/07 08:21:14;;;;;;;16.10;9.95;;;;;;;;;;5093574;28;20044;-68
2022/03/07 08:23:40;;;;;;;19.77;11.13;;;;;;;;;;5093644;28;20044;-65
2022/03/07 08:26:06;;;;;;;21.60;10.52;;;;;;;;;;5091093;28;20047;-69
2022/03/07 08:28:32;;;;;;;19.52;10.88;;;;;;;;;;5093275;28;20043;-68
2022/03/07 08:30:59;;;;;;;19.98;10.55;;;;;;;;;;5093423;28;20101;-66
2022/03/07 08:33:25;;;;;;;17.98;10.25;;;;;;;;;;5094385;28;20493;-67
2022/03/07 08:35:55;;;;;;;17.58;10.70;;;;;;;;;;5093640;28;20551;-64
2022/03/07 08:38:22;;;;;;;15.35;9.23;;;;;;;;;;5093996;28;20054;-68
2022/03/07 08:40:48;;;;;;;14.63;8.73;;;;;;;;;;5082320;28;20040;-66
2022/03/07 08:43:14;;;;;;;19.30;8.55;;;;;;;;;;5089047;28;20399;-66
2022/03/07 08:45:40;;;;;;;14.20;8.60;;;;;;;;;;5090196;28;20070;-68
2022/03/07 08:48:06;;;;;;;13.45;8.63;;;;;;;;;;5089175;28;20052;-68
2022/03/07 08:50:32;;;;;;;11.45;8.07;;;;;;;;;;5070337;28;20052;-68
2022/03/07 08:52:58;;;;;;;14.35;8.70;;;;;;;;;;5089649;28;20036;-70
2022/03/07 08:55:24;;;;;;;15.65;8.82;;;;;;;;;;5091155;28;20058;-69
2022/03/07 08:57:50;;;;;;;15.65;9.65;;;;;;;;;;5088985;28;20040;-69
2022/03/07 09:00:17;;;;;;;15.93;8.77;;;;;;;;;;5075552;28;20043;-70
2022/03/07 09:02:43;;;;;;;17.23;9.23;;;;;;;;;;5085347;28;20155;-69
2022/03/07 09:05:09;;;;;;;13.48;9.52;;;;;;;;;;5081110;28;20044;-69
2022/03/07 09:07:35;;;;;;;16.63;9.27;;;;;;;;;;5081941;28;20046;-69
2022/03/07 09:10:02;;;;;;;18.08;8.95;;;;;;;;;;5091517;28;20093;-70
2022/03/07 09:12:28;;;;;;;14.25;8.40;;;;;;;;;;5090638;28;20085;-68
2022/03/07 09:15:04;;;;;;;14.32;8.15;;;;;;;;;;5089724;28;20044;-66
2022/03/07 09:17:31;;;;;;;11.65;6.35;;;;;;;;;;5086687;28;20051;-66
2022/03/07 09:19:57;;;;;;;10.52;5.68;;;;;;;;;;5079775;28;20498;-68
2022/03/07 09:22:23;;;;;;;12.90;6.88;;;;;;;;;;5092815;28;20645;-69
2022/03/07 09:24:49;;;;;;;10.18;5.60;;;;;;;;;;5079867;28;20028;-69
2022/03/07 09:27:15;;;;;;;8.57;4.25;;;;;;;;;;5077832;28;20429;-68
2022/03/07 09:29:41;;;;;;;12.88;5.15;;;;;;;;;;5086091;28;20048;-67
2022/03/07 09:32:08;;;;;;;7.22;4.43;;;;;;;;;;5087003;28;20101;-68
2022/03/07 09:34:34;;;;;;;15.30;5.88;;;;;;;;;;5086301;28;20040;-70
2022/03/07 09:37:00;;;;;;;10.75;6.43;;;;;;;;;;5087765;28;20075;-70
2022/03/07 09:39:27;;;;;;;8.90;5.22;;;;;;;;;;5080347;28;20044;-70
2022/03/07 09:41:53;;;;;;;11.65;5.53;;;;;;;;;;5080820;28;20048;-68
2022/03/07 09:44:19;;;;;;;7.43;4.53;;;;;;;;;;5076960;28;20503;-69
2022/03/07 09:46:46;;;;;;;12.35;5.32;;;;;;;;;;5082215;28;20078;-68
2022/03/07 09:49:12;;;;;;;9.40;5.25;;;;;;;;;;5085713;28;20127;-69
2022/03/07 09:51:38;;;;;;;12.07;5.57;;;;;;;;;;5077717;28;20461;-68
2022/03/07 09:54:06;;;;;;;11.85;6.28;;;;;;;;;;5075545;28;20729;-69
2022/03/07 09:56:32;;;;;;;10.75;5.60;;;;;;;;;;5080476;28;20036;-68
2022/03/07 09:58:58;;;;;;;13.20;5.93;;;;;;;;;;5092536;28;20028;-70
2022/03/07 10:01:24;;;;;;;9.35;5.50;;;;;;;;;;5090772;28;20083;-70
2022/03/07 10:03:53;;;;;;;11.93;5.68;;;;;;;;;;5091725;28;20051;-69
2022/03/07 10:06:20;;;;;;;14.70;5.32;;;;;;;;;;5079454;28;20044;-69
2022/03/07 10:08:53;;;;;;;8.77;5.05;;;;;;;;;;5084010;28;20036;-67
2022/03/07 10:11:19;;;;;;;7.90;4.82;;;;;;;;;;5080631;28;20079;-66
2022/03/07 10:13:56;;;;;;;7.45;4.22;;;;;;;;;;5086426;28;20044;-68
2022/03/07 10:16:22;;;;;;;6.78;3.80;;;;;;;;;;5086785;28;20524;-66
2022/03/07 10:18:52;;;;;;;8.15;4.13;;;;;;;;;;5086654;28;20040;-69
2022/03/07 10:21:22;;;;;;;8.75;4.45;;;;;;;;;;5087821;28;20044;-66
2022/03/07 10:23:55;;;;;;;9.02;4.63;;;;;;;;;;5087452;28;20036;-66
2022/03/07 10:26:21;;;;;;;8.43;4.43;;;;;;;;;;5080710;28;20066;-65
2022/03/07 10:28:55;;;;;;;11.02;4.65;;;;;;;;;;5089374;28;20044;-68
2022/03/07 10:31:22;;;;;;;6.65;3.53;;;;;;;;;;5090685;28;20505;-73
2022/03/07 10:34:09;;;;;;;9.65;4.00;;;;;;;;;;5084319;28;20040;-66
2022/03/07 10:36:37;;;;;;;5.63;3.58;;;;;;;;;;5080689;28;20089;-68
2022/03/07 10:39:04;;;;;;;7.97;3.70;;;;;;;;;;5073665;28;20067;-67
2022/03/07 10:41:41;;;;;;;6.80;3.58;;;;;;;;;;5060700;28;20098;-74
2022/03/07 10:44:08;;;;;;;6.57;3.80;;;;;;;;;;5059332;28;20135;-71
2022/03/07 10:46:35;;;;;;;4.18;2.60;;;;;;;;;;5055328;28;20379;-72
2022/03/07 10:49:01;;;;;;;6.57;2.75;;;;;;;;;;5084125;28;20050;-74
2022/03/07 10:51:28;;;;;;;4.45;2.70;;;;;;;;;;5081420;28;20039;-70
2022/03/07 10:53:54;;;;;;;5.28;3.17;;;;;;;;;;5080686;28;20040;-70
2022/03/07 10:56:23;;;;;;;4.93;2.67;;;;;;;;;;5081272;28;20044;-66
2022/03/07 10:58:50;;;;;;;7.15;3.63;;;;;;;;;;5071914;28;20415;-68
2022/03/07 11:01:28;;;;;;;5.70;3.28;;;;;;;;;;5085938;28;20131;-65
2022/03/07 11:03:54;;;;;;;10.82;3.33;;;;;;;;;;5084284;28;20055;-66
2022/03/07 11:06:20;;;;;;;7.90;3.05;;;;;;;;;;5084747;28;20047;-68
2022/03/07 11:08:46;;;;;;;6.93;3.50;;;;;;;;;;5086573;28;20139;-67
2022/03/07 11:11:16;;;;;;;7.93;3.15;;;;;;;;;;5091779;28;20115;-68
2022/03/07 11:13:46;;;;;;;7.65;3.88;;;;;;;;;;5088345;28;20063;-66
2022/03/07 11:16:13;;;;;;;5.45;2.80;;;;;;;;;;5083029;28;20075;-67
2022/03/07 11:18:39;;;;;;;7.03;2.90;;;;;;;;;;5083306;28;20047;-65
2022/03/07 11:21:06;;;;;;;6.05;2.78;;;;;;;;;;5087098;28;20044;-68
2022/03/07 11:23:32;;;;;;;4.15;2.40;;;;;;;;;;5079594;28;20459;-68
2022/03/07 11:25:59;;;;;;;4.40;2.10;;;;;;;;;;5089935;28;20075;-70
2022/03/07 11:28:27;;;;;;;3.33;2.28;;;;;;;;;;5071100;28;20064;-69
2022/03/07 11:30:53;;;;;;;5.05;2.65;;;;;;;;;;5074905;28;20115;-69
2022/03/07 11:33:20;;;;;;;5.40;2.33;;;;;;;;;;5088672;28;20044;-70
2022/03/07 11:35:51;;;;;;;3.03;2.20;;;;;;;;;;5090764;28;20036;-70
2022/03/07 11:38:21;;;;;;;8.60;2.42;;;;;;;;;;5073536;28;20336;-70
2022/03/07 11:40:55;;;;;;;5.75;2.28;;;;;;;;;;5086236;28;20048;-70
2022/03/07 11:43:22;;;;;;;6.25;2.17;;;;;;;;;;5085020;28;20530;-70
2022/03/07 11:45:48;;;;;;;2.72;2.05;;;;;;;;;;5092164;28;20056;-70
2022/03/07 11:48:14;;;;;;;4.35;2.22;;;;;;;;;;5094590;28;20032;-69
2022/03/07 11:50:40;;;;;;;5.10;1.95;;;;;;;;;;5092639;28;20051;-69
2022/03/07 11:53:06;;;;;;;3.50;1.70;;;;;;;;;;5092452;28;20627;-70
2022/03/07 11:55:33;;;;;;;4.32;1.63;;;;;;;;;;5094868;28;20382;-70
2022/03/07 11:58:00;;;;;;;2.63;1.45;;;;;;;;;;5094605;28;20042;-70
2022/03/07 12:00:32;;;;;;;2.63;2.00;;;;;;;;;;5078685;28;20126;-70
2022/03/07 12:02:59;;;;;;;4.20;1.77;;;;;;;;;;5075280;28;20039;-69
2022/03/07 12:05:32;;;;;;;2.85;1.98;;;;;;;;;;5064782;28;20052;-69
2022/03/07 12:08:13;;;;;;;4.47;1.80;;;;;;;;;;5087857;28;20127;-69
2022/03/07 12:10:40;;;;;;;4.03;2.17;;;;;;;;;;5080563;28;20167;-69
2022/03/07 12:13:07;;;;;;;3.03;1.80;;;;;;;;;;5082528;28;20118;-70
2022/03/07 12:15:43;;;;;;;2.63;1.88;;;;;;;;;;5082151;28;20028;-69
2022/03/07 12:18:09;;;;;;;4.20;2.17;;;;;;;;;;5094315;28;20449;-68
2022/03/07 12:20:35;;;;;;;3.55;2.03;;;;;;;;;;5088600;28;20761;-68
2022/03/07 12:23:01;;;;;;;3.17;1.60;;;;;;;;;;5082404;28;20390;-68
2022/03/07 12:25:27;;;;;;;1.40;1.30;;;;;;;;;;5089010;28;20039;-69
2022/03/07 12:27:57;;;;;;;2.33;1.63;;;;;;;;;;5081275;28;20032;-68
2022/03/07 12:30:25;;;;;;;3.30;1.63;;;;;;;;;;5074532;28;20056;-67
2022/03/07 12:32:51;;;;;;;3.40;1.55;;;;;;;;;;5089093;28;20094;-66
2022/03/07 12:35:21;;;;;;;1.85;1.40;;;;;;;;;;5079155;28;20453;-68
2022/03/07 12:37:47;;;;;;;4.05;1.70;;;;;;;;;;5083764;28;20569;-68
2022/03/07 12:40:13;;;;;;;3.25;1.70;;;;;;;;;;5078278;28;20036;-68
2022/03/07 12:42:42;;;;;;;1.83;1.23;;;;;;;;;;5077115;28;20356;-68
2022/03/07 12:45:08;;;;;;;2.42;1.27;;;;;;;;;;5081454;28;20081;-70
2022/03/07 12:47:36;;;;;;;2.80;1.38;;;;;;;;;;5083301;28;20043;-69
2022/03/07 12:50:03;;;;;;;2.80;1.40;;;;;;;;;;5075815;28;20563;-70
2022/03/07 12:52:31;;;;;;;3.58;1.48;;;;;;;;;;5085647;28;20090;-67
2022/03/07 12:54:58;;;;;;;2.25;1.25;;;;;;;;;;5090796;28;20039;-69
2022/03/07 12:57:26;;;;;;;2.45;1.33;;;;;;;;;;5087572;28;20101;-68
2022/03/07 12:59:56;;;;;;;1.50;1.10;;;;;;;;;;5090077;28;20036;-71
2022/03/07 13:02:23;;;;;;;1.20;1.10;;;;;;;;;;5091014;28;20608;-69
2022/03/07 13:04:56;;;;;;;1.67;1.30;;;;;;;;;;5089693;28;20040;-68
2022/03/07 13:07:25;;;;;;;2.15;1.33;;;;;;;;;;5077679;28;20051;-69
2022/03/07 13:09:51;;;;;;;1.92;1.00;;;;;;;;;;5083196;28;20044;-69
2022/03/07 13:12:17;;;;;;;1.45;1.10;;;;;;;;;;5082068;28;20086;-67
2022/03/07 13:14:43;;;;;;;1.30;0.98;;;;;;;;;;5084057;28;20535;-68
2022/03/07 13:17:12;;;;;;;1.70;0.88;;;;;;;;;;5078219;28;20040;-66
2022/03/07 13:19:39;;;;;;;3.47;1.13;;;;;;;;;;5083257;28;20051;-69
2022/03/07 13:22:06;;;;;;;2.08;1.40;;;;;;;;;;5084810;28;20082;-68
2022/03/07 13:24:32;;;;;;;3.70;1.25;;;;;;;;;;5080335;28;20044;-67
2022/03/07 13:26:58;;;;;;;1.67;0.95;;;;;;;;;;5091335;28;20036;-68
2022/03/07 13:29:26;;;;;;;3.03;0.95;;;;;;;;;;5092510;28;20040;-68
2022/03/07 13:32:01;;;;;;;2.33;1.20;;;;;;;;;;5092900;28;20036;-68
2022/03/07 13:34:27;;;;;;;2.15;1.08;;;;;;;;;;5092842;28;20048;-69
2022/03/07 13:36:55;;;;;;;1.80;1.40;;;;;;;;;;5080816;28;20128;-68
2022/03/07 13:39:21;;;;;;;3.75;1.35;;;;;;;;;;5088803;28;20394;-67
2022/03/07 13:41:48;;;;;;;2.70;1.30;;;;;;;;;;5091603;28;20044;-67
2022/03/07 13:44:14;;;;;;;1.95;1.35;;;;;;;;;;5085937;28;20470;-68
2022/03/07 13:46:50;;;;;;;6.03;1.70;;;;;;;;;;5087576;28;20081;-68
2022/03/07 13:49:16;;;;;;;3.17;1.88;;;;;;;;;;5089717;28;20570;-69
2022/03/07 13:51:42;;;;;;;1.90;1.40;;;;;;;;;;5093473;28;20371;-69
2022/03/07 13:54:09;;;;;;;2.10;1.70;;;;;;;;;;5090077;28;20081;-68
2022/03/07 13:56:36;;;;;;;3.78;1.70;;;;;;;;;;5081665;28;20118;-67
2022/03/07 13:59:14;;;;;;;4.35;1.85;;;;;;;;;;5082536;28;20090;-66
2022/03/07 14:01:41;;;;;;;1.90;1.40;;;;;;;;;;5090815;28;20058;-68
2022/03/07 14:04:10;;;;;;;1.90;1.27;;;;;;;;;;5085981;28;20510;-66
2022/03/07 14:06:36;;;;;;;2.90;1.70;;;;;;;;;;5087849;28;20490;-68
2022/03/07 14:09:03;;;;;;;2.33;1.60;;;;;;;;;;5088093;28;20040;-70
2022/03/07 14:11:29;;;;;;;3.33;1.48;;;;;;;;;;5079729;28;20054;-68
2022/03/07 14:13:56;;;;;;;2.67;1.60;;;;;;;;;;5082087;28;20048;-70
2022/03/07 14:16:22;;;;;;;4.28;1.80;;;;;;;;;;5062996;28;20645;-68
2022/03/07 14:18:51;;;;;;;1.50;1.27;;;;;;;;;;5084975;28;20418;-64
2022/03/07 14:21:17;;;;;;;11.73;5.53;;;;;;;;;;5085401;28;20059;-70
2022/03/07 14:23:43;;;;;;;2.22;1.52;;;;;;;;;;5092591;28;20395;-69
2022/03/07 14:26:10;;;;;;;1.63;1.33;;;;;;;;;;5080532;28;20047;-69
2022/03/07 14:28:36;;;;;;;2.60;1.65;;;;;;;;;;5090056;28;20119;-68